Oaktown, Indiana
Current Conditions -  °F | °C
As of 10:53 AM on Friday 19 Dec 2014 (Local Time) from KLWV Reporting Station
Few Clouds Few Clouds  
Wind Chill: 28°   Ceiling: Unl
Heat Index: 33°   Visibility: 8mi
Dew Point: 23°   Wind: 6mph
Humidity: 66%   Direction: 70°ENE
Pressure: 30.33"   Gusts: NA
Location:  38.87°N, 87.44°W
Report Text: KLWV 191653Z AUTO 07005KT 8SM FEW020 01/M05 A3033 RMK AO2 SLP275 T00061050
Loading
Personal Weather Stations






























Interactive Weather Map New forecast layout! Learn more

10-Day Weather Forecast

Advertisements
Track Severe Weather on mobile